Time;durP1;ratioP1;P1;durP2;ratioP2;P2;SDS_P1;SDS_P2;PMS_P1;PMS_P2;Temp;Humidity;BMP_temperature;BMP_pressure;BME280_temperature;BME280_humidity;BME280_pressure;Samples;Min_cycle;Max_cycle;Signal;HPM_P1;HPM_P2
2021/08/26 00:00:31;;;;;;;19.52;5.22;;;15.00;99.90;;;;;;6088941;23;20022;-73
2021/08/26 00:05:46;;;;;;;18.08;4.60;;;15.00;99.90;;;;;;6088016;23;20025;-73
2021/08/26 00:08:17;;;;;;;16.05;4.32;;;14.90;99.90;;;;;;6084946;23;20062;-74
2021/08/26 00:10:43;;;;;;;18.30;4.55;;;14.90;99.90;;;;;;6065381;23;20018;-73
2021/08/26 00:13:11;;;;;;;19.30;4.80;;;14.90;99.90;;;;;;6064009;23;20029;-73
2021/08/26 00:15:41;;;;;;;16.45;4.30;;;14.90;99.90;;;;;;6065548;23;20517;-73
2021/08/26 00:18:07;;;;;;;16.02;4.85;;;14.90;99.90;;;;;;6064995;23;20033;-73
2021/08/26 00:20:47;;;;;;;20.17;5.18;;;14.90;99.90;;;;;;6062885;23;20026;-73
2021/08/26 00:23:13;;;;;;;18.58;4.68;;;15.00;99.90;;;;;;6064882;23;20030;-73
2021/08/26 00:25:38;;;;;;;14.38;4.32;;;14.90;99.90;;;;;;6079875;23;20021;-73
2021/08/26 00:28:04;;;;;;;19.27;5.40;;;14.90;99.90;;;;;;6085576;23;20029;-74
2021/08/26 00:30:30;;;;;;;19.23;4.40;;;14.90;99.90;;;;;;6084524;23;20359;-73
2021/08/26 00:32:56;;;;;;;16.05;4.60;;;14.90;99.90;;;;;;6061910;23;20030;-73
2021/08/26 00:35:21;;;;;;;18.45;4.20;;;14.90;99.90;;;;;;6061896;23;20134;-73
2021/08/26 00:37:47;;;;;;;18.13;4.82;;;14.90;99.90;;;;;;6087068;23;20021;-73
2021/08/26 00:40:13;;;;;;;14.18;3.63;;;14.90;99.90;;;;;;6063881;23;20026;-73
2021/08/26 00:42:45;;;;;;;14.82;4.40;;;14.90;99.90;;;;;;6062488;23;20026;-73
2021/08/26 00:45:11;;;;;;;16.77;4.72;;;14.90;99.90;;;;;;6086907;23;20029;-73
2021/08/26 00:47:38;;;;;;;14.27;5.65;;;14.90;99.90;;;;;;6064222;23;20026;-72
2021/08/26 00:50:05;;;;;;;17.25;4.25;;;14.90;99.90;;;;;;6059463;23;20463;-73
2021/08/26 00:52:35;;;;;;;19.02;5.65;;;14.90;99.90;;;;;;6062350;23;20025;-73
2021/08/26 00:55:24;;;;;;;15.55;4.53;;;14.90;99.90;;;;;;6063664;23;20033;-73
2021/08/26 00:57:50;;;;;;;17.60;4.70;;;14.90;99.90;;;;;;6085420;23;20030;-73
2021/08/26 01:00:16;;;;;;;13.02;4.43;;;14.80;99.90;;;;;;6062590;23;20355;-73
2021/08/26 01:03:11;;;;;;;18.77;4.53;;;14.80;99.90;;;;;;6084099;23;20033;-72
2021/08/26 01:05:46;;;;;;;16.05;4.25;;;14.80;99.90;;;;;;6084561;23;20026;-73
2021/08/26 01:08:31;;;;;;;18.52;4.47;;;14.80;99.90;;;;;;6059601;23;20057;-74
2021/08/26 01:11:01;;;;;;;17.23;4.55;;;14.80;99.90;;;;;;6062835;23;20022;-73
2021/08/26 01:13:38;;;;;;;16.55;4.38;;;14.80;99.90;;;;;;6061538;23;20036;-73
2021/08/26 01:16:09;;;;;;;17.25;4.32;;;14.80;99.90;;;;;;6083800;23;20094;-73
2021/08/26 01:18:40;;;;;;;13.60;3.88;;;14.80;99.90;;;;;;6090403;23;20446;-73
2021/08/26 01:21:07;;;;;;;16.00;4.38;;;14.80;99.90;;;;;;6087139;23;20030;-73
2021/08/26 01:23:36;;;;;;;17.90;4.50;;;14.80;99.90;;;;;;6066919;23;20056;-73
2021/08/26 01:26:07;;;;;;;16.73;4.05;;;14.80;99.90;;;;;;6067892;23;20344;-75
2021/08/26 01:28:44;;;;;;;14.25;3.70;;;14.80;99.90;;;;;;6093113;23;20073;-76
2021/08/26 01:31:10;;;;;;;14.32;3.63;;;14.80;99.90;;;;;;6092279;23;20105;-76
2021/08/26 01:33:36;;;;;;;20.08;4.38;;;14.80;99.90;;;;;;6042623;23;20104;-76
2021/08/26 01:36:05;;;;;;;15.07;4.30;;;14.80;99.90;;;;;;6090905;23;20029;-73
2021/08/26 01:38:31;;;;;;;21.52;4.68;;;14.80;99.90;;;;;;6067729;23;20026;-74
2021/08/26 01:40:57;;;;;;;12.40;3.67;;;14.80;99.90;;;;;;6094213;23;20133;-73
2021/08/26 01:43:23;;;;;;;19.42;4.68;;;14.80;99.90;;;;;;6069925;23;20067;-73
2021/08/26 01:45:49;;;;;;;15.00;3.85;;;14.90;99.90;;;;;;6095076;23;20450;-73
2021/08/26 01:48:17;;;;;;;17.17;4.32;;;14.80;99.90;;;;;;6095022;23;20022;-74
2021/08/26 01:50:45;;;;;;;17.30;3.67;;;14.90;99.90;;;;;;6093267;23;20060;-73
2021/08/26 01:53:11;;;;;;;17.80;3.95;;;14.80;99.90;;;;;;6090383;23;20022;-73
2021/08/26 01:55:41;;;;;;;18.17;3.90;;;14.70;99.90;;;;;;6094240;23;20024;-72
2021/08/26 01:58:09;;;;;;;11.43;3.53;;;14.60;99.90;;;;;;6067125;23;20316;-73
2021/08/26 02:00:35;;;;;;;9.85;2.90;;;14.60;99.90;;;;;;6093859;23;20018;-72
2021/08/26 02:03:01;;;;;;;14.07;3.20;;;14.60;99.90;;;;;;6070032;23;20018;-72
2021/08/26 02:05:27;;;;;;;12.50;2.90;;;14.50;99.90;;;;;;6069233;23;20101;-72
2021/08/26 02:07:53;;;;;;;13.55;2.97;;;14.50;99.90;;;;;;6095436;23;20463;-73
2021/08/26 02:10:19;;;;;;;14.15;3.15;;;14.40;99.90;;;;;;6092929;23;20026;-72
2021/08/26 02:12:45;;;;;;;15.38;2.88;;;14.40;99.90;;;;;;6095068;23;20017;-72
2021/08/26 02:15:11;;;;;;;15.95;3.08;;;14.30;99.90;;;;;;6069807;23;20065;-72
2021/08/26 02:17:37;;;;;;;16.90;3.22;;;14.30;99.90;;;;;;6071621;23;20026;-71
2021/08/26 02:20:08;;;;;;;15.85;4.00;;;14.30;99.90;;;;;;6092398;23;20358;-71
2021/08/26 02:22:34;;;;;;;14.25;3.53;;;14.40;99.90;;;;;;6071564;23;20092;-73
2021/08/26 02:25:01;;;;;;;12.30;3.08;;;14.40;99.90;;;;;;6069939;23;20022;-73
2021/08/26 02:27:26;;;;;;;13.68;2.88;;;14.40;99.90;;;;;;6095314;23;20025;-73
2021/08/26 02:29:52;;;;;;;15.40;2.80;;;14.40;99.90;;;;;;6092958;23;20033;-73
2021/08/26 02:32:18;;;;;;;13.73;2.83;;;14.40;99.90;;;;;;6093670;23;20058;-72
2021/08/26 02:34:44;;;;;;;11.63;2.30;;;14.30;99.90;;;;;;6071472;23;20029;-72
2021/08/26 02:37:09;;;;;;;11.32;2.47;;;14.30;99.90;;;;;;6091357;23;20026;-72
2021/08/26 02:39:35;;;;;;;12.95;2.33;;;14.30;99.90;;;;;;6072486;23;20045;-73
2021/08/26 02:42:03;;;;;;;11.20;2.13;;;14.30;99.90;;;;;;6045685;23;20026;-73
2021/08/26 02:44:34;;;;;;;11.27;2.60;;;14.20;99.90;;;;;;6082048;23;20455;-72
2021/08/26 02:47:00;;;;;;;11.13;2.22;;;14.20;99.90;;;;;;6121387;23;20037;-72
2021/08/26 02:49:26;;;;;;;9.75;2.08;;;14.20;99.90;;;;;;6120481;23;20093;-73
2021/08/26 02:51:52;;;;;;;14.30;3.15;;;14.20;99.90;;;;;;6094040;23;20085;-72
2021/08/26 02:54:18;;;;;;;12.27;2.30;;;14.20;99.90;;;;;;6046479;23;20569;-73
2021/08/26 02:56:47;;;;;;;18.55;3.13;;;14.20;99.90;;;;;;6071046;23;20350;-73
2021/08/26 02:59:13;;;;;;;11.63;2.92;;;14.20;99.90;;;;;;6069206;23;20057;-73
2021/08/26 03:01:39;;;;;;;13.45;3.25;;;14.20;99.90;;;;;;6068434;23;20022;-72
2021/08/26 03:04:04;;;;;;;13.98;2.88;;;14.30;99.90;;;;;;6090290;23;20022;-73
2021/08/26 03:06:30;;;;;;;18.13;3.85;;;14.30;99.90;;;;;;6070492;23;20033;-72
2021/08/26 03:08:56;;;;;;;17.88;3.63;;;14.30;99.90;;;;;;6093429;23;20062;-73
2021/08/26 03:11:24;;;;;;;10.00;2.17;;;14.30;99.90;;;;;;6069583;23;20029;-73
2021/08/26 03:13:50;;;;;;;14.82;3.08;;;14.30;99.90;;;;;;6070427;23;20346;-70
2021/08/26 03:16:16;;;;;;;16.05;3.30;;;14.30;99.90;;;;;;6090698;23;20360;-73
2021/08/26 03:18:42;;;;;;;14.55;2.85;;;14.30;99.90;;;;;;6091589;23;20088;-73
2021/08/26 03:21:08;;;;;;;18.58;3.05;;;14.30;99.90;;;;;;6092651;23;20026;-73
2021/08/26 03:23:34;;;;;;;15.98;3.47;;;14.30;99.90;;;;;;6069098;23;20026;-71
2021/08/26 03:25:59;;;;;;;15.38;2.97;;;14.30;99.90;;;;;;6044316;23;20025;-71
2021/08/26 03:28:25;;;;;;;16.05;3.42;;;14.30;99.90;;;;;;6069189;23;20022;-71
2021/08/26 03:30:51;;;;;;;14.07;2.97;;;14.30;99.90;;;;;;6092920;23;20084;-71
2021/08/26 03:33:17;;;;;;;14.60;3.35;;;14.30;99.90;;;;;;6090982;23;20120;-70
2021/08/26 03:35:42;;;;;;;16.85;2.83;;;14.20;99.90;;;;;;6093497;23;20037;-71
2021/08/26 03:38:08;;;;;;;11.15;2.55;;;14.30;99.90;;;;;;6094148;23;20018;-73
2021/08/26 03:40:35;;;;;;;14.13;2.92;;;14.30;99.90;;;;;;6069121;23;20061;-71
2021/08/26 03:43:00;;;;;;;14.07;2.55;;;14.20;99.90;;;;;;6094094;23;20593;-71
2021/08/26 03:45:26;;;;;;;13.80;3.08;;;14.20;99.90;;;;;;6069063;23;20061;-71
2021/08/26 03:47:52;;;;;;;10.45;2.33;;;14.20;99.90;;;;;;6093674;23;20473;-71
2021/08/26 03:50:18;;;;;;;11.63;2.50;;;14.20;99.90;;;;;;6069823;23;20148;-71
2021/08/26 03:52:44;;;;;;;10.73;2.33;;;14.20;99.90;;;;;;6092969;23;20061;-70
2021/08/26 03:55:10;;;;;;;11.80;2.47;;;14.20;99.90;;;;;;6093820;23;20018;-71
2021/08/26 03:57:35;;;;;;;10.73;2.38;;;14.20;99.90;;;;;;6091196;23;20022;-71
2021/08/26 04:00:05;;;;;;;10.32;2.35;;;14.20;99.90;;;;;;6095194;23;20092;-71
2021/08/26 04:02:31;;;;;;;15.20;3.08;;;14.20;99.90;;;;;;6066647;23;20033;-71
2021/08/26 04:04:56;;;;;;;14.10;2.30;;;14.20;99.90;;;;;;6068157;23;20022;-71
2021/08/26 04:07:22;;;;;;;10.90;2.58;;;14.20;99.90;;;;;;6044282;23;20362;-73
2021/08/26 04:09:48;;;;;;;11.18;2.58;;;14.20;99.90;;;;;;6071255;23;20418;-72
2021/08/26 04:12:14;;;;;;;11.63;2.65;;;14.20;99.90;;;;;;6094325;23;20028;-72
2021/08/26 04:14:40;;;;;;;12.88;2.83;;;14.20;99.90;;;;;;6068377;23;20029;-72
2021/08/26 04:17:05;;;;;;;11.85;2.63;;;14.20;99.90;;;;;;6093904;23;20091;-72
2021/08/26 04:19:31;;;;;;;15.13;3.08;;;14.20;99.90;;;;;;6093252;23;20104;-72
2021/08/26 04:21:57;;;;;;;14.32;3.20;;;14.20;99.90;;;;;;6069098;23;20049;-72
2021/08/26 04:24:23;;;;;;;16.27;3.35;;;14.20;99.90;;;;;;6070276;23;20081;-72
2021/08/26 04:26:49;;;;;;;8.48;2.17;;;14.20;99.90;;;;;;6093811;23;20028;-72
2021/08/26 04:29:15;;;;;;;14.90;2.65;;;14.20;99.90;;;;;;6067542;23;20061;-72
2021/08/26 04:31:41;;;;;;;13.23;2.72;;;14.20;99.90;;;;;;6045153;23;20021;-72
2021/08/26 04:34:06;;;;;;;17.27;3.40;;;14.20;99.90;;;;;;6070204;23;20045;-72
2021/08/26 04:36:32;;;;;;;12.65;3.15;;;14.20;99.90;;;;;;6068585;23;20451;-72
2021/08/26 04:38:58;;;;;;;17.02;3.45;;;14.20;99.90;;;;;;6070239;23;20077;-72
2021/08/26 04:41:24;;;;;;;17.67;3.42;;;14.20;99.90;;;;;;6069606;23;20021;-72
2021/08/26 04:43:50;;;;;;;14.32;3.88;;;14.30;99.90;;;;;;6090899;23;20029;-72
2021/08/26 04:46:16;;;;;;;11.65;2.72;;;14.20;99.90;;;;;;6069629;23;20022;-72
2021/08/26 04:48:41;;;;;;;10.32;2.50;;;14.20;99.90;;;;;;6094229;23;20089;-72
2021/08/26 04:51:07;;;;;;;14.25;3.65;;;14.20;99.90;;;;;;6094439;23;20462;-72
2021/08/26 04:53:36;;;;;;;16.33;3.17;;;14.30;99.90;;;;;;6095647;23;20033;-72
2021/08/26 04:56:02;;;;;;;14.13;3.08;;;14.30;99.90;;;;;;6070489;23;20097;-72
2021/08/26 04:58:27;;;;;;;13.63;3.10;;;14.30;99.90;;;;;;6091348;23;20451;-72
2021/08/26 05:00:53;;;;;;;16.25;3.72;;;14.30;99.90;;;;;;6047654;23;20522;-72
2021/08/26 05:03:19;;;;;;;14.25;3.47;;;14.30;99.90;;;;;;6092933;23;20446;-72
2021/08/26 05:06:01;;;;;;;17.13;3.80;;;14.30;99.90;;;;;;6095107;23;20026;-72
2021/08/26 05:08:34;;;;;;;16.10;4.47;;;14.30;99.90;;;;;;6072434;23;20041;-72
2021/08/26 05:11:00;;;;;;;15.55;3.85;;;14.30;99.90;;;;;;6095893;23;20026;-72
2021/08/26 05:13:25;;;;;;;17.17;4.03;;;14.30;99.90;;;;;;6094957;23;20033;-73
2021/08/26 05:15:51;;;;;;;17.77;3.72;;;14.30;99.90;;;;;;6095594;23;20089;-73
2021/08/26 05:18:17;;;;;;;14.68;4.57;;;14.30;99.90;;;;;;6093353;23;20022;-72
2021/08/26 05:20:42;;;;;;;15.90;4.35;;;14.30;99.90;;;;;;6069428;23;20029;-72
2021/08/26 05:23:08;;;;;;;13.25;4.22;;;14.30;99.90;;;;;;6069370;23;20451;-73
2021/08/26 05:25:35;;;;;;;15.65;3.85;;;14.30;99.90;;;;;;6069967;23;20037;-72
2021/08/26 05:28:00;;;;;;;13.18;3.33;;;14.30;99.90;;;;;;6094054;23;20033;-72
2021/08/26 05:30:26;;;;;;;16.23;4.28;;;14.30;99.90;;;;;;6091572;23;20022;-72
2021/08/26 05:32:52;;;;;;;17.67;4.68;;;14.30;99.90;;;;;;6093239;23;20471;-72
2021/08/26 05:35:21;;;;;;;20.45;4.45;;;14.20;99.90;;;;;;6067657;23;20459;-72
2021/08/26 05:37:47;;;;;;;17.27;4.60;;;14.30;99.90;;;;;;6117456;23;20350;-73
2021/08/26 05:40:12;;;;;;;16.60;4.65;;;14.30;99.90;;;;;;6094031;23;20061;-72
2021/08/26 05:42:38;;;;;;;19.33;4.63;;;14.30;99.90;;;;;;6091042;23;20359;-72
2021/08/26 05:45:05;;;;;;;15.00;3.75;;;14.30;99.90;;;;;;6070249;23;20022;-72
2021/08/26 05:47:31;;;;;;;17.40;4.40;;;14.40;99.90;;;;;;6091874;23;20025;-72
2021/08/26 05:49:57;;;;;;;18.55;5.07;;;14.40;99.90;;;;;;6066557;23;20030;-73
2021/08/26 05:52:22;;;;;;;15.88;4.32;;;14.50;99.90;;;;;;6067351;23;20026;-72
2021/08/26 05:54:48;;;;;;;22.98;5.38;;;14.50;99.90;;;;;;6066993;23;20072;-73
2021/08/26 05:57:14;;;;;;;16.85;5.82;;;14.60;99.90;;;;;;6043727;23;20026;-73
2021/08/26 05:59:40;;;;;;;23.15;6.25;;;14.60;99.90;;;;;;6066529;23;20018;-72
2021/08/26 06:02:06;;;;;;;13.55;4.38;;;14.70;99.90;;;;;;6092478;23;20529;-73
2021/08/26 06:04:31;;;;;;;19.70;6.03;;;14.80;99.90;;;;;;6069091;23;20029;-73
2021/08/26 06:06:57;;;;;;;19.52;5.28;;;14.90;99.90;;;;;;6069818;23;20418;-73
2021/08/26 06:09:26;;;;;;;19.42;5.40;;;15.00;99.90;;;;;;6089042;23;20029;-72
2021/08/26 06:11:52;;;;;;;24.15;5.25;;;15.00;99.90;;;;;;6091518;23;20026;-73
2021/08/26 06:14:17;;;;;;;20.23;5.18;;;15.00;99.90;;;;;;6091688;23;20451;-73
2021/08/26 06:16:43;;;;;;;17.63;5.10;;;15.10;99.90;;;;;;6069165;23;20026;-73
2021/08/26 06:19:09;;;;;;;16.80;5.13;;;15.20;99.90;;;;;;6067971;23;20124;-73
2021/08/26 06:21:35;;;;;;;15.48;4.90;;;15.20;99.90;;;;;;6069203;23;20022;-73
2021/08/26 06:24:05;;;;;;;21.38;5.30;;;15.30;99.90;;;;;;6068701;23;20030;-73
2021/08/26 06:26:31;;;;;;;22.08;5.60;;;15.30;99.90;;;;;;6093536;23;20402;-73
2021/08/26 06:29:01;;;;;;;19.17;4.55;;;15.30;99.90;;;;;;6091697;23;20073;-73
2021/08/26 06:31:26;;;;;;;17.77;5.13;;;15.30;99.90;;;;;;6092831;23;20501;-73
2021/08/26 06:33:52;;;;;;;19.42;5.57;;;15.40;99.90;;;;;;6069923;23;20034;-73
2021/08/26 06:36:18;;;;;;;17.40;4.82;;;15.40;99.90;;;;;;6094508;23;20029;-73
2021/08/26 06:38:44;;;;;;;20.17;5.10;;;15.40;99.90;;;;;;6043823;23;20422;-73
2021/08/26 06:41:09;;;;;;;20.27;5.25;;;15.40;99.90;;;;;;6091001;23;20018;-73
2021/08/26 06:43:35;;;;;;;15.55;4.43;;;15.50;99.90;;;;;;6093768;23;20324;-73
2021/08/26 06:46:01;;;;;;;16.45;5.47;;;15.40;99.90;;;;;;6068092;23;20033;-73
2021/08/26 06:48:30;;;;;;;24.95;5.25;;;15.50;99.90;;;;;;6067978;23;20022;-73
2021/08/26 06:50:56;;;;;;;22.08;5.28;;;15.50;99.90;;;;;;6093321;23;20057;-73
2021/08/26 06:53:22;;;;;;;17.65;4.97;;;15.50;99.90;;;;;;6069872;23;20742;-73
2021/08/26 06:55:48;;;;;;;18.98;5.13;;;15.60;99.90;;;;;;6086186;23;20022;-72
2021/08/26 06:58:14;;;;;;;19.75;5.13;;;15.60;99.90;;;;;;6064272;23;20026;-72
2021/08/26 07:00:39;;;;;;;21.92;6.10;;;15.60;99.90;;;;;;6094019;23;20048;-72
2021/08/26 07:03:05;;;;;;;23.30;5.30;;;15.70;99.90;;;;;;6065156;23;20022;-75
2021/08/26 07:05:31;;;;;;;16.38;4.30;;;15.80;99.90;;;;;;6067346;23;20032;-74
2021/08/26 07:07:57;;;;;;;21.33;5.30;;;15.90;99.90;;;;;;6091991;23;20037;-74
2021/08/26 07:10:22;;;;;;;25.88;6.28;;;16.00;99.90;;;;;;6092759;23;20026;-75
2021/08/26 07:12:48;;;;;;;19.17;5.20;;;16.20;99.90;;;;;;6068507;23;20082;-74
2021/08/26 07:15:14;;;;;;;21.35;5.53;;;16.30;99.90;;;;;;6091717;23;20033;-75
2021/08/26 07:17:41;;;;;;;19.00;4.57;;;16.40;99.90;;;;;;6092421;23;20026;-74
2021/08/26 07:20:09;;;;;;;19.02;5.63;;;16.50;99.90;;;;;;6089710;23;20018;-75
2021/08/26 07:22:35;;;;;;;21.48;5.53;;;16.50;99.90;;;;;;6062597;23;20026;-74
2021/08/26 07:25:01;;;;;;;21.60;5.55;;;16.60;99.90;;;;;;6090704;23;20026;-74
2021/08/26 07:27:26;;;;;;;22.77;5.15;;;16.80;99.90;;;;;;6089380;23;20022;-75
2021/08/26 07:29:52;;;;;;;25.90;6.75;;;17.00;99.90;;;;;;6087661;23;20029;-74
2021/08/26 07:32:18;;;;;;;26.00;6.22;;;17.10;99.90;;;;;;6089799;23;20022;-75
2021/08/26 07:34:44;;;;;;;22.85;6.55;;;17.20;99.90;;;;;;6067270;23;20029;-74
2021/08/26 07:37:09;;;;;;;25.73;5.80;;;17.40;99.90;;;;;;6091076;23;20439;-75
2021/08/26 07:39:35;;;;;;;17.02;5.13;;;17.60;99.90;;;;;;6069461;23;20022;-75
2021/08/26 07:42:01;;;;;;;19.27;5.65;;;17.70;99.90;;;;;;6065688;23;20022;-73
2021/08/26 07:44:27;;;;;;;17.58;5.03;;;17.90;99.90;;;;;;6070714;23;20026;-73
2021/08/26 07:46:53;;;;;;;24.95;5.97;;;18.00;99.90;;;;;;6043007;23;20030;-73
2021/08/26 07:49:18;;;;;;;20.25;5.00;;;18.00;99.90;;;;;;6070175;23;20089;-73
2021/08/26 07:51:44;;;;;;;25.25;6.05;;;18.00;99.90;;;;;;6069617;23;20235;-73
2021/08/26 07:54:10;;;;;;;20.75;5.55;;;18.00;99.90;;;;;;6068733;23;20462;-73
2021/08/26 07:56:38;;;;;;;21.15;5.50;;;18.00;99.90;;;;;;6069756;23;20034;-73
2021/08/26 07:59:05;;;;;;;21.98;6.07;;;18.10;99.90;;;;;;6065561;23;20093;-72
2021/08/26 08:01:30;;;;;;;26.20;5.90;;;18.10;99.90;;;;;;6070050;23;20045;-73
2021/08/26 08:03:56;;;;;;;25.80;6.60;;;18.00;99.90;;;;;;6087511;23;20025;-74
2021/08/26 08:06:23;;;;;;;17.38;5.38;;;17.80;99.90;;;;;;6067184;23;20045;-73
2021/08/26 08:08:49;;;;;;;20.67;5.45;;;17.70;99.90;;;;;;6091287;23;20098;-74
2021/08/26 08:11:15;;;;;;;25.42;8.27;;;17.70;99.90;;;;;;6067005;23;20022;-73
2021/08/26 08:13:41;;;;;;;23.38;5.88;;;17.80;99.90;;;;;;6068323;23;20068;-73
2021/08/26 08:16:11;;;;;;;29.23;5.93;;;17.80;99.90;;;;;;6090993;23;20443;-74
2021/08/26 08:18:37;;;;;;;19.92;5.53;;;17.80;99.90;;;;;;6087312;23;20033;-73
2021/08/26 08:21:06;;;;;;;24.05;5.80;;;17.90;99.90;;;;;;6089677;23;20466;-74
2021/08/26 08:23:32;;;;;;;22.52;6.15;;;17.90;99.90;;;;;;6068410;23;20105;-73
2021/08/26 08:25:58;;;;;;;20.90;4.95;;;17.90;99.90;;;;;;6066030;23;20112;-74
2021/08/26 08:28:23;;;;;;;24.90;5.70;;;17.90;99.90;;;;;;6092312;23;20026;-74
2021/08/26 08:30:49;;;;;;;23.17;6.32;;;17.90;99.90;;;;;;6068060;23;20053;-73
2021/08/26 08:33:16;;;;;;;20.05;5.40;;;18.00;99.90;;;;;;6091602;23;20065;-72
2021/08/26 08:35:42;;;;;;;22.88;5.60;;;18.20;99.90;;;;;;6092655;23;20032;-73
2021/08/26 08:38:08;;;;;;;26.27;5.57;;;18.50;99.90;;;;;;6091533;23;20050;-73
2021/08/26 08:40:34;;;;;;;23.10;5.63;;;18.60;99.90;;;;;;6067671;23;20026;-73
2021/08/26 08:43:00;;;;;;;20.42;5.57;;;18.70;99.90;;;;;;6092806;23;20026;-73
2021/08/26 08:45:26;;;;;;;21.58;6.03;;;18.60;99.90;;;;;;6092448;23;20021;-73
2021/08/26 08:47:53;;;;;;;25.52;5.75;;;18.60;99.90;;;;;;6091304;23;20462;-72
2021/08/26 08:50:26;;;;;;;23.73;5.18;;;18.50;99.90;;;;;;6066456;23;20029;-72
2021/08/26 08:52:54;;;;;;;20.60;5.07;;;18.40;99.90;;;;;;6067346;23;20136;-73
2021/08/26 08:55:20;;;;;;;26.42;5.57;;;18.40;99.20;;;;;;6091609;23;20485;-73
2021/08/26 08:57:46;;;;;;;20.75;5.25;;;18.40;99.90;;;;;;6091562;23;20026;-72
2021/08/26 09:00:17;;;;;;;23.70;5.68;;;18.40;99.90;;;;;;6090583;23;20021;-73
2021/08/26 09:02:43;;;;;;;17.65;4.43;;;18.40;98.90;;;;;;6089397;23;20057;-73
2021/08/26 09:05:09;;;;;;;24.40;6.00;;;18.40;96.90;;;;;;6068100;23;20018;-73
2021/08/26 09:07:37;;;;;;;18.50;5.05;;;18.30;97.70;;;;;;6067188;23;20014;-72
2021/08/26 09:10:07;;;;;;;21.90;5.25;;;18.40;96.30;;;;;;6091123;23;20052;-73
2021/08/26 09:12:45;;;;;;;21.65;4.93;;;18.20;97.30;;;;;;6038161;23;20022;-72
2021/08/26 09:15:12;;;;;;;23.85;4.90;;;18.20;98.50;;;;;;6036126;23;20105;-72
2021/08/26 09:17:39;;;;;;;18.50;4.85;;;18.20;98.50;;;;;;6037036;23;20085;-73
2021/08/26 09:20:08;;;;;;;15.23;4.22;;;18.30;97.50;;;;;;6058998;23;20062;-72
2021/08/26 09:22:34;;;;;;;16.25;4.20;;;18.70;94.90;;;;;;6061181;23;20025;-75
2021/08/26 09:25:00;;;;;;;18.38;4.07;;;18.80;94.30;;;;;;6059775;23;20034;-75
2021/08/26 09:27:35;;;;;;;18.33;4.35;;;18.80;95.10;;;;;;6036657;23;20371;-73
2021/08/26 09:30:01;;;;;;;17.63;4.40;;;18.80;95.30;;;;;;6060878;23;20061;-76
2021/08/26 09:32:39;;;;;;;16.45;4.70;;;18.70;95.70;;;;;;6014219;23;20026;-74
2021/08/26 09:35:15;;;;;;;14.30;4.28;;;18.70;96.10;;;;;;6035115;23;20113;-74
2021/08/26 09:37:49;;;;;;;20.38;4.57;;;18.70;95.50;;;;;;6039702;23;20032;-74
2021/08/26 09:40:18;;;;;;;22.13;5.38;;;18.60;95.70;;;;;;6037243;23;20054;-71
2021/08/26 09:42:44;;;;;;;15.27;4.15;;;18.70;93.50;;;;;;6068517;23;20111;-72
2021/08/26 09:45:24;;;;;;;18.45;4.43;;;18.90;94.40;;;;;;6069644;23;20018;-73
2021/08/26 09:48:11;;;;;;;18.63;4.55;;;18.90;94.90;;;;;;6094177;23;20026;-73
2021/08/26 09:50:39;;;;;;;23.35;5.15;;;19.10;95.30;;;;;;6089903;23;20459;-72
2021/08/26 09:53:06;;;;;;;17.90;4.43;;;19.30;94.70;;;;;;6070009;23;20041;-73
2021/08/26 09:55:50;;;;;;;16.45;4.32;;;19.40;92.80;;;;;;6092137;23;20111;-71
2021/08/26 09:58:47;;;;;;;15.02;4.82;;;19.50;92.80;;;;;;6093501;23;20022;-72
2021/08/26 10:01:17;;;;;;;14.57;4.95;;;19.60;93.50;;;;;;6064055;23;20365;-72
2021/08/26 10:03:44;;;;;;;15.18;4.45;;;20.00;94.30;;;;;;6067098;23;20501;-71
2021/08/26 10:06:11;;;;;;;18.60;4.63;;;20.30;92.40;;;;;;6066409;23;20457;-71
2021/08/26 10:08:42;;;;;;;12.52;3.85;;;20.40;90.20;;;;;;6093847;23;20366;-72
2021/08/26 10:11:10;;;;;;;17.20;4.22;;;20.40;89.20;;;;;;6086292;23;20032;-71
2021/08/26 10:13:37;;;;;;;15.40;4.35;;;20.50;91.00;;;;;;6092871;23;20266;-71
2021/08/26 10:16:04;;;;;;;17.48;4.65;;;20.70;90.50;;;;;;6092341;23;20025;-71
2021/08/26 10:18:30;;;;;;;13.90;3.58;;;20.80;90.60;;;;;;6065511;23;20093;-72
2021/08/26 10:20:57;;;;;;;11.88;3.92;;;20.90;88.50;;;;;;6092936;23;20542;-70
2021/08/26 10:23:24;;;;;;;11.43;3.15;;;20.80;85.30;;;;;;6089987;23;20114;-71
2021/08/26 10:25:52;;;;;;;13.85;3.70;;;20.60;85.90;;;;;;6065895;23;20415;-71
2021/08/26 10:28:18;;;;;;;14.60;4.00;;;20.60;85.40;;;;;;6068547;23;20093;-73
2021/08/26 10:30:44;;;;;;;14.75;4.22;;;20.60;87.30;;;;;;6091198;23;20498;-71
2021/08/26 10:33:15;;;;;;;14.60;4.55;;;20.70;90.20;;;;;;6091040;23;20024;-71
2021/08/26 10:35:50;;;;;;;20.05;4.70;;;20.90;87.90;;;;;;6094117;23;20037;-71
2021/08/26 10:38:28;;;;;;;16.27;4.53;;;21.10;91.20;;;;;;6086566;23;20029;-70
2021/08/26 10:41:13;;;;;;;22.27;4.10;;;21.40;90.40;;;;;;6066287;23;20048;-70
2021/08/26 10:43:40;;;;;;;15.85;4.32;;;21.30;87.60;;;;;;6092930;23;20451;-73
2021/08/26 10:46:08;;;;;;;18.27;4.18;;;21.00;90.10;;;;;;6086474;23;20053;-72
2021/08/26 10:48:35;;;;;;;15.10;4.40;;;21.00;90.50;;;;;;6067056;23;20057;-73
2021/08/26 10:51:16;;;;;;;15.70;4.25;;;21.10;90.60;;;;;;6064774;23;20097;-73
2021/08/26 10:53:45;;;;;;;17.75;4.13;;;21.20;88.90;;;;;;6069644;23;20022;-73
2021/08/26 10:56:33;;;;;;;15.13;3.80;;;21.10;85.70;;;;;;6089486;23;20025;-73
2021/08/26 10:59:01;;;;;;;12.52;3.53;;;20.90;89.50;;;;;;6095462;23;20412;-72
2021/08/26 11:01:36;;;;;;;12.02;3.63;;;20.80;90.30;;;;;;6091937;23;20018;-72
2021/08/26 11:04:27;;;;;;;16.08;3.47;;;20.60;90.90;;;;;;6067958;23;20080;-73
2021/08/26 11:06:53;;;;;;;13.98;3.53;;;20.50;91.00;;;;;;6070020;23;20374;-72
2021/08/26 11:09:28;;;;;;;13.57;3.85;;;20.40;91.40;;;;;;6092115;23;20073;-72
2021/08/26 11:12:03;;;;;;;17.50;4.43;;;20.30;91.50;;;;;;6094968;23;20033;-72
2021/08/26 11:14:34;;;;;;;14.05;3.58;;;20.30;90.50;;;;;;6067006;23;20022;-73
2021/08/26 11:17:06;;;;;;;15.88;3.70;;;20.30;90.50;;;;;;6093670;23;20030;-73
2021/08/26 11:19:37;;;;;;;17.75;4.00;;;20.30;90.30;;;;;;6090144;23;20051;-72
2021/08/26 11:22:09;;;;;;;12.13;3.28;;;20.20;91.00;;;;;;6092280;23;20021;-73
2021/08/26 11:24:35;;;;;;;16.25;4.05;;;20.30;89.30;;;;;;6094103;23;20050;-73
2021/08/26 11:27:18;;;;;;;12.13;4.30;;;20.40;90.20;;;;;;6069267;23;20028;-73
2021/08/26 11:29:49;;;;;;;;;;;20.50;90.50;;;;;;6092858;23;20026;-72
2021/08/26 11:32:16;;;;;;;17.98;5.47;;;20.70;89.20;;;;;;6092016;23;20397;-73
2021/08/26 11:34:48;;;;;;;12.43;4.53;;;20.80;90.30;;;;;;6091479;23;20485;-73
2021/08/26 11:37:21;;;;;;;16.92;4.43;;;20.80;90.00;;;;;;6086647;23;20021;-73
2021/08/26 11:40:05;;;;;;;13.30;4.10;;;20.80;89.70;;;;;;6090737;23;20239;-72
2021/08/26 11:42:43;;;;;;;13.40;4.13;;;20.80;91.70;;;;;;6089841;23;20018;-73
2021/08/26 11:45:09;;;;;;;14.93;4.60;;;21.10;87.10;;;;;;6093889;23;20371;-73
2021/08/26 11:47:38;;;;;;;13.70;4.15;;;21.00;90.30;;;;;;6090346;23;20026;-73
2021/08/26 11:50:18;;;;;;;14.23;4.45;;;20.80;91.10;;;;;;6069983;23;20026;-73
2021/08/26 11:52:44;;;;;;;;;;;20.60;91.50;;;;;;6088055;23;20295;-73
2021/08/26 11:55:10;;;;;;;18.35;4.68;;;20.40;91.80;;;;;;6093299;23;19920;-73
2021/08/26 11:57:36;;;;;;;16.20;4.47;;;20.40;92.70;;;;;;6092104;23;20021;-73
2021/08/26 12:00:07;;;;;;;15.30;4.20;;;20.40;93.10;;;;;;6087519;23;20022;-73
2021/08/26 12:02:36;;;;;;;13.18;4.22;;;20.70;93.00;;;;;;6118609;23;20342;-73
2021/08/26 12:05:07;;;;;;;17.92;5.20;;;20.80;91.40;;;;;;6064546;23;20050;-73
2021/08/26 12:07:36;;;;;;;14.25;3.70;;;20.80;91.80;;;;;;6093770;23;20034;-73
2021/08/26 12:10:39;;;;;;;19.52;4.30;;;20.70;92.10;;;;;;6090848;23;20035;-73
2021/08/26 12:13:13;;;;;;;15.00;3.90;;;20.50;91.70;;;;;;6067187;23;20121;-72
2021/08/26 12:15:39;;;;;;;14.20;4.30;;;20.20;92.60;;;;;;6091426;23;20022;-71
2021/08/26 12:18:13;;;;;;;15.52;3.72;;;20.10;93.00;;;;;;6067785;23;20058;-72
2021/08/26 12:20:51;;;;;;;10.63;2.17;;;20.00;92.60;;;;;;6090405;23;20135;-73
2021/08/26 12:23:30;;;;;;;9.68;1.40;;;19.90;91.10;;;;;;6092695;23;20025;-73
2021/08/26 12:26:20;;;;;;;4.65;1.10;;;19.90;88.30;;;;;;6069395;23;20454;-73
2021/08/26 12:29:06;;;;;;;5.68;1.00;;;19.90;87.20;;;;;;6062426;23;20083;-73
2021/08/26 12:31:37;;;;;;;6.82;1.08;;;19.90;87.80;;;;;;6084942;23;20026;-72
2021/08/26 12:34:08;;;;;;;6.85;0.82;;;20.00;88.80;;;;;;6046147;23;20497;-72
2021/08/26 12:36:42;;;;;;;5.63;0.80;;;20.30;87.00;;;;;;6090453;23;20101;-73
2021/08/26 12:39:29;;;;;;;5.57;0.75;;;20.30;87.50;;;;;;6094785;23;20025;-74
2021/08/26 12:42:05;;;;;;;2.80;0.60;;;20.50;87.40;;;;;;6090772;23;20498;-74
2021/08/26 12:44:31;;;;;;;5.07;0.73;;;20.50;81.20;;;;;;6091586;23;20022;-73
2021/08/26 12:46:56;;;;;;;2.83;0.80;;;20.50;80.20;;;;;;6068609;23;20722;-73